sensor_id;sensor_type;location;lat;lon;timestamp;pressure;altitude;pressure_sealevel;temperature;humidity
5595;BME280;1003;48.002;7.788;2024-01-15T00:00:12;98320.78;;;-3.48;100.00
5595;BME280;1003;48.002;7.788;2024-01-15T00:02:39;98316.69;;;-3.48;100.00
5595;BME280;1003;48.002;7.788;2024-01-15T00:05:07;98306.53;;;-3.58;100.00
5595;BME280;1003;48.002;7.788;2024-01-15T00:07:34;98307.69;;;-3.47;100.00
5595;BME280;1003;48.002;7.788;2024-01-15T00:10:02;98304.22;;;-3.54;100.00
5595;BME280;1003;48.002;7.788;2024-01-15T00:12:29;98299.47;;;-3.49;100.00
5595;BME280;1003;48.002;7.788;2024-01-15T00:14:56;98286.94;;;-3.57;100.00
5595;BME280;1003;48.002;7.788;2024-01-15T00:17:24;98293.47;;;-3.57;100.00
5595;BME280;1003;48.002;7.788;2024-01-15T00:19:51;98288.47;;;-3.60;100.00
5595;BME280;1003;48.002;7.788;2024-01-15T00:22:18;98291.13;;;-3.54;100.00
5595;BME280;1003;48.002;7.788;2024-01-15T00:24:45;98291.16;;;-3.53;100.00
5595;BME280;1003;48.002;7.788;2024-01-15T00:27:12;98286.94;;;-3.57;100.00
5595;BME280;1003;48.002;7.788;2024-01-15T00:29:39;98279.41;;;-3.61;100.00
5595;BME280;1003;48.002;7.788;2024-01-15T00:32:06;98268.94;;;-3.56;100.00
5595;BME280;1003;48.002;7.788;2024-01-15T00:34:34;98266.72;;;-3.50;100.00
5595;BME280;1003;48.002;7.788;2024-01-15T00:37:01;98268.56;;;-3.42;100.00
5595;BME280;1003;48.002;7.788;2024-01-15T00:39:29;98262.47;;;-3.54;100.00
5595;BME280;1003;48.002;7.788;2024-01-15T00:41:56;98250.88;;;-3.58;100.00
5595;BME280;1003;48.002;7.788;2024-01-15T00:44:23;98249.22;;;-3.59;100.00
5595;BME280;1003;48.002;7.788;2024-01-15T00:46:50;98246.81;;;-3.57;100.00
5595;BME280;1003;48.002;7.788;2024-01-15T00:49:17;98248.31;;;-3.61;100.00
5595;BME280;1003;48.002;7.788;2024-01-15T00:51:47;98237.41;;;-3.71;100.00
5595;BME280;1003;48.002;7.788;2024-01-15T00:54:14;98242.44;;;-3.66;100.00
5595;BME280;1003;48.002;7.788;2024-01-15T00:56:41;98247.91;;;-3.75;100.00
5595;BME280;1003;48.002;7.788;2024-01-15T00:59:08;98232.75;;;-3.88;100.00
5595;BME280;1003;48.002;7.788;2024-01-15T01:01:36;98228.41;;;-3.97;100.00
5595;BME280;1003;48.002;7.788;2024-01-15T01:04:04;98219.50;;;-3.93;100.00
5595;BME280;1003;48.002;7.788;2024-01-15T01:06:31;98220.78;;;-3.79;100.00
5595;BME280;1003;48.002;7.788;2024-01-15T01:08:59;98232.28;;;-3.77;100.00
5595;BME280;1003;48.002;7.788;2024-01-15T01:11:26;98234.03;;;-3.74;100.00
5595;BME280;1003;48.002;7.788;2024-01-15T01:13:53;98237.00;;;-3.83;100.00
5595;BME280;1003;48.002;7.788;2024-01-15T01:16:20;98222.78;;;-3.93;100.00
5595;BME280;1003;48.002;7.788;2024-01-15T01:18:47;98223.69;;;-3.91;100.00
5595;BME280;1003;48.002;7.788;2024-01-15T01:21:14;98230.63;;;-3.78;100.00
5595;BME280;1003;48.002;7.788;2024-01-15T01:23:41;98243.22;;;-3.67;100.00
5595;BME280;1003;48.002;7.788;2024-01-15T01:26:09;98234.47;;;-3.60;100.00
5595;BME280;1003;48.002;7.788;2024-01-15T01:28:37;98234.38;;;-3.62;100.00
5595;BME280;1003;48.002;7.788;2024-01-15T01:31:04;98230.38;;;-3.60;100.00
5595;BME280;1003;48.002;7.788;2024-01-15T01:33:31;98237.13;;;-3.53;100.00
5595;BME280;1003;48.002;7.788;2024-01-15T01:35:58;98229.88;;;-3.50;100.00
5595;BME280;1003;48.002;7.788;2024-01-15T01:38:25;98226.03;;;-3.40;100.00
5595;BME280;1003;48.002;7.788;2024-01-15T01:40:52;98227.91;;;-3.33;100.00
5595;BME280;1003;48.002;7.788;2024-01-15T01:43:20;98218.91;;;-3.32;100.00
5595;BME280;1003;48.002;7.788;2024-01-15T01:45:47;98226.41;;;-3.28;100.00
5595;BME280;1003;48.002;7.788;2024-01-15T01:48:14;98413.84;;;-3.30;100.00
5595;BME280;1003;48.002;7.788;2024-01-15T01:50:41;98411.34;;;-3.32;100.00
5595;BME280;1003;48.002;7.788;2024-01-15T01:53:09;98422.88;;;-3.29;100.00
5595;BME280;1003;48.002;7.788;2024-01-15T01:55:38;98418.97;;;-3.24;100.00
5595;BME280;1003;48.002;7.788;2024-01-15T01:58:06;98433.06;;;-3.19;100.00
5595;BME280;1003;48.002;7.788;2024-01-15T02:00:36;98440.50;;;-3.17;100.00
5595;BME280;1003;48.002;7.788;2024-01-15T02:03:04;98445.41;;;-3.17;100.00
5595;BME280;1003;48.002;7.788;2024-01-15T02:05:31;98457.06;;;-3.11;100.00
5595;BME280;1003;48.002;7.788;2024-01-15T02:07:58;98456.69;;;-2.97;100.00
5595;BME280;1003;48.002;7.788;2024-01-15T02:10:25;98455.81;;;-2.99;100.00
5595;BME280;1003;48.002;7.788;2024-01-15T02:12:52;98455.06;;;-2.96;100.00
5595;BME280;1003;48.002;7.788;2024-01-15T02:15:19;98458.31;;;-2.97;100.00
5595;BME280;1003;48.002;7.788;2024-01-15T02:18:06;98456.84;;;-2.92;100.00
5595;BME280;1003;48.002;7.788;2024-01-15T02:20:34;98461.88;;;-2.89;100.00
5595;BME280;1003;48.002;7.788;2024-01-15T02:23:08;98455.22;;;-2.92;100.00
5595;BME280;1003;48.002;7.788;2024-01-15T02:25:37;98453.81;;;-2.85;100.00
5595;BME280;1003;48.002;7.788;2024-01-15T02:28:06;98453.81;;;-2.85;100.00
5595;BME280;1003;48.002;7.788;2024-01-15T02:30:38;98455.34;;;-2.87;100.00
5595;BME280;1003;48.002;7.788;2024-01-15T02:33:05;98459.63;;;-2.81;100.00
5595;BME280;1003;48.002;7.788;2024-01-15T02:35:33;98455.66;;;-2.78;100.00
5595;BME280;1003;48.002;7.788;2024-01-15T02:38:04;98445.03;;;-2.77;100.00
5595;BME280;1003;48.002;7.788;2024-01-15T02:40:31;98453.53;;;-2.67;100.00
5595;BME280;1003;48.002;7.788;2024-01-15T02:42:59;98443.75;;;-2.64;100.00
5595;BME280;1003;48.002;7.788;2024-01-15T02:45:26;98440.53;;;-2.63;100.00
5595;BME280;1003;48.002;7.788;2024-01-15T02:47:54;98398.09;;;-2.56;100.00
5595;BME280;1003;48.002;7.788;2024-01-15T02:50:21;98393.31;;;-2.51;100.00
5595;BME280;1003;48.002;7.788;2024-01-15T02:52:48;98394.22;;;-2.48;100.00
5595;BME280;1003;48.002;7.788;2024-01-15T02:55:16;98387.75;;;-2.46;100.00
5595;BME280;1003;48.002;7.788;2024-01-15T02:57:43;98386.28;;;-2.39;100.00
5595;BME280;1003;48.002;7.788;2024-01-15T03:00:11;98393.16;;;-2.27;100.00
5595;BME280;1003;48.002;7.788;2024-01-15T03:02:39;98396.63;;;-2.21;100.00
5595;BME280;1003;48.002;7.788;2024-01-15T03:05:09;98387.72;;;-2.17;100.00
5595;BME280;1003;48.002;7.788;2024-01-15T03:07:36;98391.94;;;-2.13;100.00
5595;BME280;1003;48.002;7.788;2024-01-15T03:10:06;98387.00;;;-2.13;100.00
5595;BME280;1003;48.002;7.788;2024-01-15T03:12:34;98381.28;;;-2.12;100.00
5595;BME280;1003;48.002;7.788;2024-01-15T03:15:01;98375.53;;;-2.13;100.00
5595;BME280;1003;48.002;7.788;2024-01-15T03:17:28;98373.16;;;-2.09;100.00
5595;BME280;1003;48.002;7.788;2024-01-15T03:19:55;98377.28;;;-2.08;100.00
5595;BME280;1003;48.002;7.788;2024-01-15T03:22:22;98366.13;;;-1.96;100.00
5595;BME280;1003;48.002;7.788;2024-01-15T03:24:49;98378.66;;;-1.88;100.00
5595;BME280;1003;48.002;7.788;2024-01-15T03:27:16;98373.63;;;-1.93;100.00
5595;BME280;1003;48.002;7.788;2024-01-15T03:29:44;98361.31;;;-1.93;100.00
5595;BME280;1003;48.002;7.788;2024-01-15T03:32:11;98356.31;;;-1.94;100.00
5595;BME280;1003;48.002;7.788;2024-01-15T03:34:38;98368.81;;;-1.88;100.00
5595;BME280;1003;48.002;7.788;2024-01-15T03:37:05;98355.88;;;-1.79;100.00
5595;BME280;1003;48.002;7.788;2024-01-15T03:39:32;98355.91;;;-1.78;100.00
5595;BME280;1003;48.002;7.788;2024-01-15T03:41:59;98357.53;;;-1.78;100.00
5595;BME280;1003;48.002;7.788;2024-01-15T03:44:26;98364.25;;;-1.73;100.00
5595;BME280;1003;48.002;7.788;2024-01-15T03:46:54;98355.13;;;-1.77;100.00
5595;BME280;1003;48.002;7.788;2024-01-15T03:49:21;98365.97;;;-1.70;100.00
5595;BME280;1003;48.002;7.788;2024-01-15T03:51:48;98356.94;;;-1.70;100.00
5595;BME280;1003;48.002;7.788;2024-01-15T03:54:15;98358.06;;;-1.59;100.00
5595;BME280;1003;48.002;7.788;2024-01-15T03:56:42;98354.75;;;-1.59;100.00
5595;BME280;1003;48.002;7.788;2024-01-15T03:59:09;98354.94;;;-1.51;100.00
5595;BME280;1003;48.002;7.788;2024-01-15T04:01:36;98353.47;;;-1.45;100.00
5595;BME280;1003;48.002;7.788;2024-01-15T04:04:04;98342.69;;;-1.48;100.00
5595;BME280;1003;48.002;7.788;2024-01-15T04:06:31;98336.06;;;-1.51;100.00
5595;BME280;1003;48.002;7.788;2024-01-15T04:08:59;98322.06;;;-1.52;100.00
5595;BME280;1003;48.002;7.788;2024-01-15T04:11:26;98326.25;;;-1.49;100.00
5595;BME280;1003;48.002;7.788;2024-01-15T04:13:53;98341.97;;;-1.44;100.00
5595;BME280;1003;48.002;7.788;2024-01-15T04:16:20;98329.00;;;-1.37;100.00
5595;BME280;1003;48.002;7.788;2024-01-15T04:18:47;98333.94;;;-1.36;100.00
5595;BME280;1003;48.002;7.788;2024-01-15T04:21:17;98334.78;;;-1.35;100.00
5595;BME280;1003;48.002;7.788;2024-01-15T04:23:44;98330.66;;;-1.36;100.00
5595;BME280;1003;48.002;7.788;2024-01-15T04:26:11;98332.28;;;-1.37;100.00
5595;BME280;1003;48.002;7.788;2024-01-15T04:28:38;98337.22;;;-1.37;100.00
5595;BME280;1003;48.002;7.788;2024-01-15T04:31:04;98342.22;;;-1.34;100.00
5595;BME280;1003;48.002;7.788;2024-01-15T04:33:31;98338.94;;;-1.34;100.00
5595;BME280;1003;48.002;7.788;2024-01-15T04:36:02;98345.84;;;-1.54;100.00
5595;BME280;1003;48.002;7.788;2024-01-15T04:38:30;98338.91;;;-1.69;100.00
5595;BME280;1003;48.002;7.788;2024-01-15T04:40:58;98334.59;;;-1.77;100.00
5595;BME280;1003;48.002;7.788;2024-01-15T04:43:25;98330.41;;;-1.80;100.00
5595;BME280;1003;48.002;7.788;2024-01-15T04:45:52;98331.97;;;-1.83;100.00
5595;BME280;1003;48.002;7.788;2024-01-15T04:48:19;98332.16;;;-1.77;100.00
5595;BME280;1003;48.002;7.788;2024-01-15T04:50:46;98331.09;;;-1.86;100.00
5595;BME280;1003;48.002;7.788;2024-01-15T04:53:13;98325.25;;;-1.89;100.00
5595;BME280;1003;48.002;7.788;2024-01-15T04:55:42;98315.41;;;-1.89;100.00
5595;BME280;1003;48.002;7.788;2024-01-15T04:58:09;98317.84;;;-1.91;100.00
5595;BME280;1003;48.002;7.788;2024-01-15T05:00:36;98329.41;;;-1.88;100.00
5595;BME280;1003;48.002;7.788;2024-01-15T05:03:04;98317.84;;;-1.91;100.00
5595;BME280;1003;48.002;7.788;2024-01-15T05:05:31;98310.53;;;-1.88;100.00
5595;BME280;1003;48.002;7.788;2024-01-15T05:07:58;98311.41;;;-1.86;100.00
5595;BME280;1003;48.002;7.788;2024-01-15T05:10:25;98311.44;;;-1.84;100.00
5595;BME280;1003;48.002;7.788;2024-01-15T05:12:53;98307.44;;;-1.80;100.00
5595;BME280;1003;48.002;7.788;2024-01-15T05:15:20;98307.53;;;-1.77;100.00
5595;BME280;1003;48.002;7.788;2024-01-15T05:17:47;98313.53;;;-1.66;100.00
5595;BME280;1003;48.002;7.788;2024-01-15T05:20:14;98313.03;;;-1.53;100.00
5595;BME280;1003;48.002;7.788;2024-01-15T05:22:40;98304.19;;;-1.45;100.00
5595;BME280;1003;48.002;7.788;2024-01-15T05:25:07;98299.28;;;-1.43;100.00
5595;BME280;1003;48.002;7.788;2024-01-15T05:27:34;98300.84;;;-1.47;100.00
5595;BME280;1003;48.002;7.788;2024-01-15T05:30:04;98299.97;;;-1.49;100.00
5595;BME280;1003;48.002;7.788;2024-01-15T05:32:31;98303.25;;;-1.50;100.00
5595;BME280;1003;48.002;7.788;2024-01-15T05:34:59;98299.19;;;-1.48;100.00
5595;BME280;1003;48.002;7.788;2024-01-15T05:37:26;98295.09;;;-1.46;100.00
5595;BME280;1003;48.002;7.788;2024-01-15T05:39:53;98279.72;;;-1.37;100.00
5595;BME280;1003;48.002;7.788;2024-01-15T05:42:20;98288.38;;;-1.17;100.00
5595;BME280;1003;48.002;7.788;2024-01-15T05:44:46;98285.72;;;-1.26;100.00
5595;BME280;1003;48.002;7.788;2024-01-15T05:47:15;98284.97;;;-1.23;100.00
5595;BME280;1003;48.002;7.788;2024-01-15T05:49:42;98285.72;;;-1.26;100.00
5595;BME280;1003;48.002;7.788;2024-01-15T05:52:09;98283.13;;;-1.30;100.00
5595;BME280;1003;48.002;7.788;2024-01-15T05:54:35;98284.84;;;-1.28;100.00
5595;BME280;1003;48.002;7.788;2024-01-15T05:57:04;98277.47;;;-1.26;100.00
5595;BME280;1003;48.002;7.788;2024-01-15T05:59:31;98271.75;;;-1.25;100.00
5595;BME280;1003;48.002;7.788;2024-01-15T06:01:59;98275.03;;;-1.25;100.00
5595;BME280;1003;48.002;7.788;2024-01-15T06:04:28;98268.47;;;-1.24;100.00
5595;BME280;1003;48.002;7.788;2024-01-15T06:06:55;98282.53;;;-1.22;100.00
5595;BME280;1003;48.002;7.788;2024-01-15T06:09:22;98270.16;;;-1.23;100.00
5595;BME280;1003;48.002;7.788;2024-01-15T06:11:49;98271.00;;;-1.23;100.00
5595;BME280;1003;48.002;7.788;2024-01-15T06:14:15;98266.06;;;-1.23;100.00
5595;BME280;1003;48.002;7.788;2024-01-15T06:16:42;98264.44;;;-1.22;100.00
5595;BME280;1003;48.002;7.788;2024-01-15T06:19:09;98253.78;;;-1.20;100.00
5595;BME280;1003;48.002;7.788;2024-01-15T06:21:36;98262.03;;;-1.19;100.00
5595;BME280;1003;48.002;7.788;2024-01-15T06:24:04;98258.78;;;-1.18;100.00
5595;BME280;1003;48.002;7.788;2024-01-15T06:26:31;98267.94;;;-1.13;100.00
5595;BME280;1003;48.002;7.788;2024-01-15T06:28:58;98256.44;;;-1.12;100.00
5595;BME280;1003;48.002;7.788;2024-01-15T06:31:25;98255.06;;;-0.99;100.00
5595;BME280;1003;48.002;7.788;2024-01-15T06:33:51;98251.72;;;-1.01;100.00
5595;BME280;1003;48.002;7.788;2024-01-15T06:36:18;98257.41;;;-1.04;100.00
5595;BME280;1003;48.002;7.788;2024-01-15T06:38:47;98246.81;;;-1.01;100.00
5595;BME280;1003;48.002;7.788;2024-01-15T06:41:16;98247.75;;;-0.95;100.00
5595;BME280;1003;48.002;7.788;2024-01-15T06:43:46;98247.03;;;-0.91;100.00
5595;BME280;1003;48.002;7.788;2024-01-15T06:46:20;98223.06;;;-0.96;100.00
5595;BME280;1003;48.002;7.788;2024-01-15T06:48:47;98214.34;;;-0.79;100.00
5595;BME280;1003;48.002;7.788;2024-01-15T06:51:16;98203.88;;;-0.67;100.00
5595;BME280;1003;48.002;7.788;2024-01-15T06:53:43;98203.28;;;-0.56;100.00
5595;BME280;1003;48.002;7.788;2024-01-15T06:56:11;98195.94;;;-0.52;100.00
5595;BME280;1003;48.002;7.788;2024-01-15T06:58:38;98195.00;;;-0.59;100.00
5595;BME280;1003;48.002;7.788;2024-01-15T07:01:05;98201.72;;;-0.52;100.00
5595;BME280;1003;48.002;7.788;2024-01-15T07:03:33;98201.72;;;-0.50;100.00
5595;BME280;1003;48.002;7.788;2024-01-15T07:06:00;98200.00;;;-0.55;100.00
5595;BME280;1003;48.002;7.788;2024-01-15T07:08:27;98199.09;;;-0.60;100.00
5595;BME280;1003;48.002;7.788;2024-01-15T07:10:54;98195.00;;;-0.59;100.00
5595;BME280;1003;48.002;7.788;2024-01-15T07:13:22;98191.75;;;-0.57;100.00
5595;BME280;1003;48.002;7.788;2024-01-15T07:15:49;98193.41;;;-0.56;100.00
5595;BME280;1003;48.002;7.788;2024-01-15T07:18:16;98192.78;;;-0.44;100.00
5595;BME280;1003;48.002;7.788;2024-01-15T07:20:43;98185.31;;;-0.48;100.00
5595;BME280;1003;48.002;7.788;2024-01-15T07:23:10;98184.47;;;-0.49;100.00
5595;BME280;1003;48.002;7.788;2024-01-15T07:25:37;98178.81;;;-0.43;100.00
5595;BME280;1003;48.002;7.788;2024-01-15T07:28:05;98175.66;;;-0.36;100.00
5595;BME280;1003;48.002;7.788;2024-01-15T07:30:33;98163.34;;;-0.35;100.00
5595;BME280;1003;48.002;7.788;2024-01-15T07:33:01;98165.06;;;-0.31;100.00
5595;BME280;1003;48.002;7.788;2024-01-15T07:35:30;98163.53;;;-0.22;100.00
5595;BME280;1003;48.002;7.788;2024-01-15T07:37:57;98161.84;;;-0.27;100.00
5595;BME280;1003;48.002;7.788;2024-01-15T07:40:24;98163.44;;;-0.27;100.00
5595;BME280;1003;48.002;7.788;2024-01-15T07:42:51;98162.75;;;-0.21;100.00
5595;BME280;1003;48.002;7.788;2024-01-15T07:45:18;98078.00;;;-0.20;100.00
5595;BME280;1003;48.002;7.788;2024-01-15T07:47:46;98086.22;;;-0.20;100.00
5595;BME280;1003;48.002;7.788;2024-01-15T07:50:14;98083.75;;;-0.18;100.00
5595;BME280;1003;48.002;7.788;2024-01-15T07:52:41;98083.00;;;-0.14;100.00
5595;BME280;1003;48.002;7.788;2024-01-15T07:55:08;98128.34;;;-0.11;100.00
5595;BME280;1003;48.002;7.788;2024-01-15T07:57:36;98127.53;;;-0.08;100.00
5595;BME280;1003;48.002;7.788;2024-01-15T08:00:04;98127.59;;;-0.05;100.00
5595;BME280;1003;48.002;7.788;2024-01-15T08:02:31;98134.28;;;0.02;100.00
5595;BME280;1003;48.002;7.788;2024-01-15T08:05:00;98136.03;;;0.11;100.00
5595;BME280;1003;48.002;7.788;2024-01-15T08:07:26;98132.75;;;0.10;100.00
5595;BME280;1003;48.002;7.788;2024-01-15T08:10:18;98146.88;;;0.19;100.00
5595;BME280;1003;48.002;7.788;2024-01-15T08:12:45;98156.00;;;0.24;100.00
5595;BME280;1003;48.002;7.788;2024-01-15T08:15:13;98152.03;;;0.33;100.00
5595;BME280;1003;48.002;7.788;2024-01-15T08:17:40;98152.06;;;0.37;100.00
5595;BME280;1003;48.002;7.788;2024-01-15T08:20:09;98155.44;;;0.42;100.00
5595;BME280;1003;48.002;7.788;2024-01-15T08:22:36;98159.66;;;0.49;100.00
5595;BME280;1003;48.002;7.788;2024-01-15T08:25:04;98157.22;;;0.51;100.00
5595;BME280;1003;48.002;7.788;2024-01-15T08:27:37;98144.91;;;0.57;100.00
5595;BME280;1003;48.002;7.788;2024-01-15T08:30:05;98130.97;;;0.62;100.00
5595;BME280;1003;48.002;7.788;2024-01-15T08:32:35;98123.56;;;0.64;100.00
5595;BME280;1003;48.002;7.788;2024-01-15T08:35:09;98130.34;;;0.75;100.00
5595;BME280;1003;48.002;7.788;2024-01-15T08:37:37;98144.44;;;0.84;100.00
5595;BME280;1003;48.002;7.788;2024-01-15T08:40:05;98137.00;;;0.86;100.00
5595;BME280;1003;48.002;7.788;2024-01-15T08:42:32;98153.53;;;0.87;100.00
5595;BME280;1003;48.002;7.788;2024-01-15T08:44:59;98154.38;;;0.90;100.00
5595;BME280;1003;48.002;7.788;2024-01-15T08:52:40;98151.94;;;0.92;100.00
5595;BME280;1003;48.002;7.788;2024-01-15T08:55:07;98153.63;;;0.94;100.00
5595;BME280;1003;48.002;7.788;2024-01-15T08:57:34;98148.78;;;1.03;100.00
5595;BME280;1003;48.002;7.788;2024-01-15T09:02:37;98138.91;;;1.05;100.00
5595;BME280;1003;48.002;7.788;2024-01-15T09:05:04;98138.13;;;1.11;100.00
5595;BME280;1003;48.002;7.788;2024-01-15T09:07:32;98143.13;;;1.15;100.00
5595;BME280;1003;48.002;7.788;2024-01-15T09:10:01;98158.09;;;1.24;100.00
5595;BME280;1003;48.002;7.788;2024-01-15T09:12:28;98155.72;;;1.37;100.00
5595;BME280;1003;48.002;7.788;2024-01-15T09:14:55;98140.09;;;1.42;100.00
5595;BME280;1003;48.002;7.788;2024-01-15T09:17:22;98136.00;;;1.46;100.00
5595;BME280;1003;48.002;7.788;2024-01-15T09:19:49;98118.75;;;1.52;100.00
5595;BME280;1003;48.002;7.788;2024-01-15T09:22:16;98117.16;;;1.62;100.00
5595;BME280;1003;48.002;7.788;2024-01-15T09:24:44;98140.41;;;1.79;100.00
5595;BME280;1003;48.002;7.788;2024-01-15T09:27:12;98136.38;;;1.93;100.00
5595;BME280;1003;48.002;7.788;2024-01-15T09:29:40;98125.75;;;2.09;100.00
5595;BME280;1003;48.002;7.788;2024-01-15T09:32:08;98139.06;;;2.25;100.00
5595;BME280;1003;48.002;7.788;2024-01-15T09:34:35;98142.44;;;2.33;100.00
5595;BME280;1003;48.002;7.788;2024-01-15T09:38:09;98142.53;;;2.49;100.00
5595;BME280;1003;48.002;7.788;2024-01-15T09:40:39;98145.81;;;2.45;100.00
5595;BME280;1003;48.002;7.788;2024-01-15T09:43:12;98141.72;;;2.56;100.00
5595;BME280;1003;48.002;7.788;2024-01-15T09:45:59;98131.88;;;2.65;100.00
5595;BME280;1003;48.002;7.788;2024-01-15T09:48:27;98121.16;;;2.71;100.00
5595;BME280;1003;48.002;7.788;2024-01-15T09:50:54;98123.66;;;2.81;100.00
5595;BME280;1003;48.002;7.788;2024-01-15T09:53:23;98121.19;;;2.90;100.00
5595;BME280;1003;48.002;7.788;2024-01-15T09:55:50;98125.38;;;3.01;100.00
5595;BME280;1003;48.002;7.788;2024-01-15T09:58:21;98122.09;;;3.11;100.00
5595;BME280;1003;48.002;7.788;2024-01-15T10:00:49;98110.50;;;3.16;100.00
5595;BME280;1003;48.002;7.788;2024-01-15T10:03:16;98110.53;;;3.19;100.00
5595;BME280;1003;48.002;7.788;2024-01-15T10:05:43;98118.78;;;3.09;100.00
5595;BME280;1003;48.002;7.788;2024-01-15T10:08:11;98111.34;;;3.15;100.00
5595;BME280;1003;48.002;7.788;2024-01-15T10:10:38;98120.47;;;3.18;100.00
5595;BME280;1003;48.002;7.788;2024-01-15T10:13:05;98122.91;;;3.10;100.00
5595;BME280;1003;48.002;7.788;2024-01-15T10:15:35;98123.72;;;3.06;100.00
5595;BME280;1003;48.002;7.788;2024-01-15T10:18:05;98134.53;;;3.14;100.00
5595;BME280;1003;48.002;7.788;2024-01-15T10:20:32;98140.22;;;2.88;100.00
5595;BME280;1003;48.002;7.788;2024-01-15T10:22:59;98147.72;;;3.02;100.00
5595;BME280;1003;48.002;7.788;2024-01-15T10:28:05;98136.13;;;3.04;100.00
5595;BME280;1003;48.002;7.788;2024-01-15T10:30:42;98137.81;;;3.07;100.00
5595;BME280;1003;48.002;7.788;2024-01-15T10:33:09;98140.31;;;3.07;100.00
5595;BME280;1003;48.002;7.788;2024-01-15T10:35:41;98137.81;;;3.10;100.00
5595;BME280;1003;48.002;7.788;2024-01-15T10:38:08;98129.53;;;3.09;100.00
5595;BME280;1003;48.002;7.788;2024-01-15T10:40:35;98138.66;;;3.07;100.00
5595;BME280;1003;48.002;7.788;2024-01-15T10:43:04;98138.63;;;3.03;100.00
5595;BME280;1003;48.002;7.788;2024-01-15T10:45:31;98141.09;;;3.06;100.00
5595;BME280;1003;48.002;7.788;2024-01-15T10:55:59;98146.00;;;2.84;100.00
5595;BME280;1003;48.002;7.788;2024-01-15T10:58:29;98139.34;;;2.76;100.00
5595;BME280;1003;48.002;7.788;2024-01-15T11:00:59;98153.38;;;2.65;100.00
5595;BME280;1003;48.002;7.788;2024-01-15T11:03:27;98155.81;;;2.63;100.00
5595;BME280;1003;48.002;7.788;2024-01-15T11:05:54;98160.81;;;2.72;100.00
5595;BME280;1003;48.002;7.788;2024-01-15T11:08:21;98168.28;;;2.72;100.00
5595;BME280;1003;48.002;7.788;2024-01-15T11:10:52;98161.66;;;2.70;100.00
5595;BME280;1003;48.002;7.788;2024-01-15T11:13:40;98159.19;;;2.76;100.00
5595;BME280;1003;48.002;7.788;2024-01-15T11:26:36;98162.41;;;2.58;100.00
5595;BME280;1003;48.002;7.788;2024-01-15T11:29:06;98154.97;;;2.56;100.00
5595;BME280;1003;48.002;7.788;2024-01-15T11:32:12;98156.63;;;2.57;100.00
5595;BME280;1003;48.002;7.788;2024-01-15T11:34:59;98162.47;;;2.67;100.00
5595;BME280;1003;48.002;7.788;2024-01-15T11:37:29;98166.63;;;2.74;100.00
5595;BME280;1003;48.002;7.788;2024-01-15T11:40:35;98169.16;;;2.83;100.00
5595;BME280;1003;48.002;7.788;2024-01-15T11:51:45;98172.38;;;2.64;100.00
5595;BME280;1003;48.002;7.788;2024-01-15T11:56:49;98153.38;;;2.66;100.00
5595;BME280;1003;48.002;7.788;2024-01-15T11:59:16;98150.06;;;2.67;100.00
5595;BME280;1003;48.002;7.788;2024-01-15T12:01:44;98138.50;;;2.72;100.00
5595;BME280;1003;48.002;7.788;2024-01-15T12:04:11;98141.03;;;2.83;100.00
5595;BME280;1003;48.002;7.788;2024-01-15T12:06:42;98148.50;;;2.90;100.00
5595;BME280;1003;48.002;7.788;2024-01-15T12:09:09;98136.13;;;2.98;100.00
5595;BME280;1003;48.002;7.788;2024-01-15T12:11:39;98122.88;;;3.01;100.00
5595;BME280;1003;48.002;7.788;2024-01-15T12:14:09;98091.44;;;3.00;100.00
5595;BME280;1003;48.002;7.788;2024-01-15T12:16:36;98101.38;;;3.06;100.00
5595;BME280;1003;48.002;7.788;2024-01-15T12:28:31;98122.16;;;3.29;100.00
5595;BME280;1003;48.002;7.788;2024-01-15T12:31:35;98113.84;;;3.27;100.00
5595;BME280;1003;48.002;7.788;2024-01-15T12:34:06;98110.56;;;3.30;100.00
5595;BME280;1003;48.002;7.788;2024-01-15T12:36:34;98115.50;;;3.19;100.00
5595;BME280;1003;48.002;7.788;2024-01-15T12:46:43;98120.50;;;3.28;100.00
5595;BME280;1003;48.002;7.788;2024-01-15T12:49:10;98114.69;;;3.25;100.00
5595;BME280;1003;48.002;7.788;2024-01-15T12:51:37;98112.19;;;3.20;100.00
5595;BME280;1003;48.002;7.788;2024-01-15T12:54:04;98121.28;;;3.27;100.00
5595;BME280;1003;48.002;7.788;2024-01-15T12:56:31;98110.53;;;3.25;100.00
5595;BME280;1003;48.002;7.788;2024-01-15T12:58:58;98113.03;;;3.28;100.00
5595;BME280;1003;48.002;7.788;2024-01-15T13:01:25;98117.16;;;3.20;100.00
5595;BME280;1003;48.002;7.788;2024-01-15T13:03:53;98117.97;;;3.22;100.00
5595;BME280;1003;48.002;7.788;2024-01-15T13:06:20;98122.09;;;3.22;100.00
5595;BME280;1003;48.002;7.788;2024-01-15T13:08:47;98134.56;;;3.29;100.00
5595;BME280;1003;48.002;7.788;2024-01-15T13:11:14;98120.47;;;3.25;100.00
5595;BME280;1003;48.002;7.788;2024-01-15T13:13:41;98130.41;;;3.25;100.00
5595;BME280;1003;48.002;7.788;2024-01-15T13:16:08;98125.47;;;3.34;100.00
5595;BME280;1003;48.002;7.788;2024-01-15T13:18:35;98137.03;;;3.32;100.00
5595;BME280;1003;48.002;7.788;2024-01-15T13:21:04;98142.81;;;3.18;100.00
5595;BME280;1003;48.002;7.788;2024-01-15T13:23:30;98144.47;;;3.19;100.00
5595;BME280;1003;48.002;7.788;2024-01-15T13:25:57;98153.53;;;3.15;100.00
5595;BME280;1003;48.002;7.788;2024-01-15T13:28:24;98151.09;;;3.20;100.00
5595;BME280;1003;48.002;7.788;2024-01-15T13:30:51;98155.16;;;3.05;100.00
5595;BME280;1003;48.002;7.788;2024-01-15T13:33:19;98165.06;;;2.95;100.00
5595;BME280;1003;48.002;7.788;2024-01-15T13:35:46;98175.78;;;2.90;100.00
5595;BME280;1003;48.002;7.788;2024-01-15T13:38:16;98172.47;;;2.82;100.00
5595;BME280;1003;48.002;7.788;2024-01-15T13:40:44;98175.75;;;2.83;100.00
5595;BME280;1003;48.002;7.788;2024-01-15T13:43:11;98188.16;;;2.81;100.00
5595;BME280;1003;48.002;7.788;2024-01-15T13:45:40;98184.84;;;2.78;100.00
5595;BME280;1003;48.002;7.788;2024-01-15T13:48:07;98189.81;;;2.76;100.00
5595;BME280;1003;48.002;7.788;2024-01-15T13:50:34;98188.06;;;2.63;100.00
5595;BME280;1003;48.002;7.788;2024-01-15T13:53:02;98193.81;;;2.57;100.00
5595;BME280;1003;48.002;7.788;2024-01-15T13:55:32;98200.47;;;2.61;100.00
5595;BME280;1003;48.002;7.788;2024-01-15T13:57:59;98191.31;;;2.53;100.00
5595;BME280;1003;48.002;7.788;2024-01-15T14:00:26;98201.22;;;2.48;100.00
5595;BME280;1003;48.002;7.788;2024-01-15T14:02:52;98197.88;;;2.45;100.00
5595;BME280;1003;48.002;7.788;2024-01-15T14:05:20;98199.53;;;2.46;100.00
5595;BME280;1003;48.002;7.788;2024-01-15T14:07:46;98202.03;;;2.44;100.00
5595;BME280;1003;48.002;7.788;2024-01-15T14:10:14;98213.50;;;2.34;100.00
5595;BME280;1003;48.002;7.788;2024-01-15T14:12:43;98220.91;;;2.27;100.00
5595;BME280;1003;48.002;7.788;2024-01-15T14:15:10;98220.88;;;2.21;100.00
5595;BME280;1003;48.002;7.788;2024-01-15T14:17:37;98232.34;;;2.14;100.00